sensor_id;sensor_type;location;lat;lon;timestamp;P1;durP1;ratioP1;P2;durP2;ratioP2
76373;SDS011;65197;50.164;8.012;2022-11-14T09:06:10;292.88;;;39.03;;
76373;SDS011;65197;50.164;8.012;2022-11-14T09:08:35;278.75;;;35.05;;
76373;SDS011;65197;50.164;8.012;2022-11-14T09:11:01;148.98;;;27.42;;
76373;SDS011;65197;50.164;8.012;2022-11-14T09:13:27;358.25;;;43.17;;
76373;SDS011;65197;50.164;8.012;2022-11-14T09:15:53;300.10;;;38.38;;
76373;SDS011;65197;50.164;8.012;2022-11-14T09:18:18;201.15;;;30.15;;
76373;SDS011;65197;50.164;8.012;2022-11-14T09:20:44;237.20;;;33.33;;
76373;SDS011;65197;50.164;8.012;2022-11-14T09:23:09;342.15;;;41.00;;
76373;SDS011;65197;50.164;8.012;2022-11-14T09:25:35;195.93;;;33.10;;
76373;SDS011;65197;50.164;8.012;2022-11-14T09:28:04;242.05;;;36.60;;
76373;SDS011;65197;50.164;8.012;2022-11-14T09:30:31;242.35;;;32.50;;
76373;SDS011;65197;50.164;8.012;2022-11-14T09:32:58;168.57;;;30.33;;
76373;SDS011;65197;50.164;8.012;2022-11-14T09:35:25;253.55;;;35.80;;
76373;SDS011;65197;50.164;8.012;2022-11-14T09:37:57;255.30;;;36.42;;
76373;SDS011;65197;50.164;8.012;2022-11-14T09:40:24;361.00;;;47.63;;
76373;SDS011;65197;50.164;8.012;2022-11-14T09:42:53;359.45;;;40.38;;
76373;SDS011;65197;50.164;8.012;2022-11-14T09:45:24;285.25;;;35.45;;
76373;SDS011;65197;50.164;8.012;2022-11-14T09:47:50;355.60;;;44.22;;
76373;SDS011;65197;50.164;8.012;2022-11-14T09:50:20;426.50;;;52.42;;
76373;SDS011;65197;50.164;8.012;2022-11-14T09:52:51;236.60;;;32.25;;
76373;SDS011;65197;50.164;8.012;2022-11-14T09:55:23;260.25;;;34.70;;
76373;SDS011;65197;50.164;8.012;2022-11-14T09:57:52;417.23;;;51.13;;
76373;SDS011;65197;50.164;8.012;2022-11-14T10:00:19;419.40;;;51.95;;
76373;SDS011;65197;50.164;8.012;2022-11-14T10:05:38;363.70;;;39.63;;
76373;SDS011;65197;50.164;8.012;2022-11-14T10:11:05;314.35;;;39.05;;
76373;SDS011;65197;50.164;8.012;2022-11-14T10:13:35;308.55;;;38.20;;
76373;SDS011;65197;50.164;8.012;2022-11-14T10:16:08;314.48;;;41.30;;
76373;SDS011;65197;50.164;8.012;2022-11-14T10:27:42;228.07;;;36.45;;
76373;SDS011;65197;50.164;8.012;2022-11-14T10:30:15;101.43;;;21.13;;
76373;SDS011;65197;50.164;8.012;2022-11-14T10:35:44;64.88;;;23.85;;
76373;SDS011;65197;50.164;8.012;2022-11-14T10:41:00;117.35;;;22.58;;
76373;SDS011;65197;50.164;8.012;2022-11-14T10:48:36;168.60;;;26.33;;
76373;SDS011;65197;50.164;8.012;2022-11-14T10:56:23;160.85;;;27.27;;
76373;SDS011;65197;50.164;8.012;2022-11-14T10:58:48;89.40;;;20.30;;
76373;SDS011;65197;50.164;8.012;2022-11-14T11:04:00;73.20;;;22.45;;
76373;SDS011;65197;50.164;8.012;2022-11-14T11:06:42;96.40;;;23.80;;
76373;SDS011;65197;50.164;8.012;2022-11-14T11:09:08;131.80;;;25.80;;
76373;SDS011;65197;50.164;8.012;2022-11-14T11:11:57;274.95;;;40.38;;
76373;SDS011;65197;50.164;8.012;2022-11-14T11:14:25;94.93;;;23.70;;
76373;SDS011;65197;50.164;8.012;2022-11-14T11:17:06;73.38;;;23.05;;
76373;SDS011;65197;50.164;8.012;2022-11-14T11:19:32;61.15;;;23.10;;
76373;SDS011;65197;50.164;8.012;2022-11-14T11:21:57;48.35;;;21.77;;
76373;SDS011;65197;50.164;8.012;2022-11-14T11:24:33;50.35;;;22.15;;
76373;SDS011;65197;50.164;8.012;2022-11-14T11:29:39;45.67;;;22.27;;
76373;SDS011;65197;50.164;8.012;2022-11-14T11:32:05;42.90;;;20.17;;
76373;SDS011;65197;50.164;8.012;2022-11-14T11:34:32;36.53;;;19.58;;
76373;SDS011;65197;50.164;8.012;2022-11-14T11:39:34;29.92;;;16.13;;
76373;SDS011;65197;50.164;8.012;2022-11-14T11:42:05;36.95;;;17.67;;
76373;SDS011;65197;50.164;8.012;2022-11-14T11:44:36;34.83;;;19.30;;
76373;SDS011;65197;50.164;8.012;2022-11-14T11:47:08;33.10;;;18.95;;
76373;SDS011;65197;50.164;8.012;2022-11-14T11:52:25;43.70;;;22.65;;
76373;SDS011;65197;50.164;8.012;2022-11-14T11:58:04;37.22;;;18.77;;
76373;SDS011;65197;50.164;8.012;2022-11-14T12:00:31;34.63;;;19.00;;
76373;SDS011;65197;50.164;8.012;2022-11-14T12:02:56;31.35;;;18.33;;
76373;SDS011;65197;50.164;8.012;2022-11-14T12:05:33;31.85;;;18.63;;
76373;SDS011;65197;50.164;8.012;2022-11-14T12:08:08;33.13;;;18.42;;
76373;SDS011;65197;50.164;8.012;2022-11-14T12:10:39;35.38;;;18.52;;
76373;SDS011;65197;50.164;8.012;2022-11-14T12:13:25;38.38;;;18.05;;
76373;SDS011;65197;50.164;8.012;2022-11-14T12:16:23;30.48;;;17.88;;
76373;SDS011;65197;50.164;8.012;2022-11-14T12:24:56;29.55;;;16.42;;
76373;SDS011;65197;50.164;8.012;2022-11-14T12:28:07;31.65;;;17.10;;
76373;SDS011;65197;50.164;8.012;2022-11-14T12:30:39;30.52;;;16.55;;
76373;SDS011;65197;50.164;8.012;2022-11-14T12:35:51;79.75;;;51.53;;
76373;SDS011;65197;50.164;8.012;2022-11-14T12:38:19;35.17;;;19.02;;
76373;SDS011;65197;50.164;8.012;2022-11-14T12:40:49;31.05;;;18.20;;
76373;SDS011;65197;50.164;8.012;2022-11-14T12:43:29;29.52;;;17.75;;
76373;SDS011;65197;50.164;8.012;2022-11-14T12:45:59;32.92;;;18.58;;
76373;SDS011;65197;50.164;8.012;2022-11-14T12:50:51;33.25;;;17.45;;
76373;SDS011;65197;50.164;8.012;2022-11-14T13:06:23;32.05;;;18.08;;
76373;SDS011;65197;50.164;8.012;2022-11-14T13:11:54;33.28;;;17.02;;
76373;SDS011;65197;50.164;8.012;2022-11-14T13:14:48;35.30;;;19.35;;
76373;SDS011;65197;50.164;8.012;2022-11-14T13:17:34;34.40;;;18.02;;
76373;SDS011;65197;50.164;8.012;2022-11-14T13:20:22;27.63;;;16.80;;
76373;SDS011;65197;50.164;8.012;2022-11-14T13:33:41;29.73;;;17.00;;
76373;SDS011;65197;50.164;8.012;2022-11-14T13:36:16;28.10;;;16.77;;
76373;SDS011;65197;50.164;8.012;2022-11-14T13:39:12;28.80;;;17.55;;
76373;SDS011;65197;50.164;8.012;2022-11-14T13:41:38;32.20;;;18.45;;
76373;SDS011;65197;50.164;8.012;2022-11-14T13:52:16;33.58;;;19.17;;
76373;SDS011;65197;50.164;8.012;2022-11-14T13:54:46;34.72;;;18.88;;
76373;SDS011;65197;50.164;8.012;2022-11-14T13:57:14;26.92;;;17.23;;
76373;SDS011;65197;50.164;8.012;2022-11-14T14:00:01;30.90;;;17.73;;
76373;SDS011;65197;50.164;8.012;2022-11-14T14:02:44;31.38;;;18.73;;
76373;SDS011;65197;50.164;8.012;2022-11-14T14:08:38;32.72;;;19.08;;
76373;SDS011;65197;50.164;8.012;2022-11-14T14:11:28;32.63;;;18.77;;
76373;SDS011;65197;50.164;8.012;2022-11-14T14:17:34;29.85;;;17.75;;
76373;SDS011;65197;50.164;8.012;2022-11-14T14:19:53;28.52;;;17.35;;
76373;SDS011;65197;50.164;8.012;2022-11-14T14:22:44;28.40;;;17.02;;
76373;SDS011;65197;50.164;8.012;2022-11-14T14:28:38;31.90;;;19.33;;
76373;SDS011;65197;50.164;8.012;2022-11-14T14:31:23;29.75;;;18.17;;
76373;SDS011;65197;50.164;8.012;2022-11-14T14:33:49;29.73;;;19.63;;
76373;SDS011;65197;50.164;8.012;2022-11-14T14:38:41;30.77;;;18.95;;
76373;SDS011;65197;50.164;8.012;2022-11-14T14:41:06;30.40;;;19.17;;
76373;SDS011;65197;50.164;8.012;2022-11-14T14:43:32;32.22;;;19.70;;
76373;SDS011;65197;50.164;8.012;2022-11-14T14:45:59;29.73;;;18.85;;
76373;SDS011;65197;50.164;8.012;2022-11-14T14:48:25;31.45;;;19.77;;
76373;SDS011;65197;50.164;8.012;2022-11-14T14:53:26;29.83;;;18.45;;
76373;SDS011;65197;50.164;8.012;2022-11-14T14:55:55;27.98;;;17.15;;
76373;SDS011;65197;50.164;8.012;2022-11-14T15:00:56;26.15;;;16.77;;
76373;SDS011;65197;50.164;8.012;2022-11-14T15:03:23;26.58;;;17.08;;
76373;SDS011;65197;50.164;8.012;2022-11-14T15:05:57;30.15;;;17.35;;
76373;SDS011;65197;50.164;8.012;2022-11-14T15:08:23;25.17;;;16.77;;
76373;SDS011;65197;50.164;8.012;2022-11-14T15:10:49;24.50;;;16.75;;
76373;SDS011;65197;50.164;8.012;2022-11-14T15:13:16;26.75;;;17.30;;
76373;SDS011;65197;50.164;8.012;2022-11-14T15:15:42;26.75;;;18.55;;
76373;SDS011;65197;50.164;8.012;2022-11-14T15:18:07;25.33;;;16.50;;
76373;SDS011;65197;50.164;8.012;2022-11-14T15:20:40;25.67;;;16.60;;
76373;SDS011;65197;50.164;8.012;2022-11-14T15:25:34;23.02;;;16.02;;
76373;SDS011;65197;50.164;8.012;2022-11-14T15:28:00;23.88;;;15.07;;
76373;SDS011;65197;50.164;8.012;2022-11-14T15:30:27;36.38;;;23.13;;
76373;SDS011;65197;50.164;8.012;2022-11-14T15:32:59;26.75;;;16.80;;
76373;SDS011;65197;50.164;8.012;2022-11-14T15:35:30;24.58;;;15.68;;
76373;SDS011;65197;50.164;8.012;2022-11-14T15:38:01;25.20;;;17.02;;
76373;SDS011;65197;50.164;8.012;2022-11-14T15:40:32;20.15;;;12.27;;
76373;SDS011;65197;50.164;8.012;2022-11-14T15:42:59;23.67;;;13.73;;
76373;SDS011;65197;50.164;8.012;2022-11-14T15:45:26;22.60;;;15.15;;
76373;SDS011;65197;50.164;8.012;2022-11-14T15:48:05;19.45;;;12.80;;
76373;SDS011;65197;50.164;8.012;2022-11-14T15:50:36;23.38;;;13.48;;
76373;SDS011;65197;50.164;8.012;2022-11-14T15:53:05;20.85;;;12.48;;
76373;SDS011;65197;50.164;8.012;2022-11-14T15:55:40;21.40;;;13.90;;
76373;SDS011;65197;50.164;8.012;2022-11-14T15:58:09;20.02;;;12.55;;
76373;SDS011;65197;50.164;8.012;2022-11-14T16:00:35;21.48;;;13.73;;
76373;SDS011;65197;50.164;8.012;2022-11-14T16:03:01;28.15;;;13.48;;
76373;SDS011;65197;50.164;8.012;2022-11-14T16:05:28;23.45;;;13.30;;
76373;SDS011;65197;50.164;8.012;2022-11-14T16:07:54;23.77;;;13.65;;
76373;SDS011;65197;50.164;8.012;2022-11-14T16:10:23;24.48;;;12.95;;
76373;SDS011;65197;50.164;8.012;2022-11-14T16:12:50;17.60;;;12.20;;
76373;SDS011;65197;50.164;8.012;2022-11-14T16:15:16;23.15;;;13.60;;
76373;SDS011;65197;50.164;8.012;2022-11-14T16:17:43;22.02;;;14.63;;
76373;SDS011;65197;50.164;8.012;2022-11-14T16:20:13;23.08;;;15.55;;
76373;SDS011;65197;50.164;8.012;2022-11-14T16:22:46;22.23;;;14.98;;
76373;SDS011;65197;50.164;8.012;2022-11-14T16:25:15;25.65;;;14.50;;
76373;SDS011;65197;50.164;8.012;2022-11-14T16:27:42;26.23;;;14.73;;
76373;SDS011;65197;50.164;8.012;2022-11-14T16:30:10;28.60;;;19.25;;
76373;SDS011;65197;50.164;8.012;2022-11-14T16:32:39;33.80;;;20.02;;
76373;SDS011;65197;50.164;8.012;2022-11-14T16:35:06;32.83;;;20.67;;
76373;SDS011;65197;50.164;8.012;2022-11-14T16:37:34;26.90;;;14.38;;
76373;SDS011;65197;50.164;8.012;2022-11-14T16:39:59;29.95;;;17.00;;
76373;SDS011;65197;50.164;8.012;2022-11-14T16:42:25;21.63;;;12.75;;
76373;SDS011;65197;50.164;8.012;2022-11-14T16:44:50;32.67;;;19.60;;
76373;SDS011;65197;50.164;8.012;2022-11-14T16:47:15;29.88;;;17.52;;
76373;SDS011;65197;50.164;8.012;2022-11-14T16:49:42;23.58;;;14.27;;
76373;SDS011;65197;50.164;8.012;2022-11-14T16:52:08;27.00;;;17.40;;
76373;SDS011;65197;50.164;8.012;2022-11-14T16:54:34;23.52;;;14.88;;
76373;SDS011;65197;50.164;8.012;2022-11-14T16:57:00;22.52;;;13.40;;
76373;SDS011;65197;50.164;8.012;2022-11-14T16:59:25;26.38;;;14.38;;
76373;SDS011;65197;50.164;8.012;2022-11-14T17:01:51;22.02;;;13.15;;
76373;SDS011;65197;50.164;8.012;2022-11-14T17:04:16;21.40;;;14.43;;
76373;SDS011;65197;50.164;8.012;2022-11-14T17:06:41;23.08;;;14.52;;
76373;SDS011;65197;50.164;8.012;2022-11-14T17:09:07;21.85;;;13.85;;
76373;SDS011;65197;50.164;8.012;2022-11-14T17:11:35;26.27;;;14.68;;
76373;SDS011;65197;50.164;8.012;2022-11-14T17:14:00;27.80;;;14.18;;
76373;SDS011;65197;50.164;8.012;2022-11-14T17:16:26;21.42;;;12.40;;
76373;SDS011;65197;50.164;8.012;2022-11-14T17:18:54;21.17;;;12.43;;
76373;SDS011;65197;50.164;8.012;2022-11-14T17:21:20;37.15;;;21.35;;
76373;SDS011;65197;50.164;8.012;2022-11-14T17:23:46;21.73;;;13.02;;
76373;SDS011;65197;50.164;8.012;2022-11-14T17:26:11;22.77;;;13.32;;
76373;SDS011;65197;50.164;8.012;2022-11-14T17:28:37;52.88;;;31.27;;
76373;SDS011;65197;50.164;8.012;2022-11-14T17:31:05;25.05;;;14.95;;
76373;SDS011;65197;50.164;8.012;2022-11-14T17:33:33;29.45;;;14.82;;
76373;SDS011;65197;50.164;8.012;2022-11-14T17:36:05;36.72;;;20.35;;
76373;SDS011;65197;50.164;8.012;2022-11-14T17:38:32;32.60;;;18.80;;
76373;SDS011;65197;50.164;8.012;2022-11-14T17:40:58;30.98;;;16.77;;
76373;SDS011;65197;50.164;8.012;2022-11-14T17:43:24;44.95;;;22.77;;
76373;SDS011;65197;50.164;8.012;2022-11-14T17:45:53;44.28;;;25.60;;
76373;SDS011;65197;50.164;8.012;2022-11-14T17:48:22;33.45;;;18.85;;
76373;SDS011;65197;50.164;8.012;2022-11-14T17:50:47;37.85;;;18.98;;
76373;SDS011;65197;50.164;8.012;2022-11-14T17:53:13;42.90;;;22.58;;
76373;SDS011;65197;50.164;8.012;2022-11-14T17:55:38;58.40;;;27.77;;
76373;SDS011;65197;50.164;8.012;2022-11-14T17:58:04;40.45;;;21.77;;
76373;SDS011;65197;50.164;8.012;2022-11-14T18:00:29;46.50;;;22.92;;
76373;SDS011;65197;50.164;8.012;2022-11-14T18:02:55;47.22;;;23.60;;
76373;SDS011;65197;50.164;8.012;2022-11-14T18:05:22;41.60;;;22.98;;
76373;SDS011;65197;50.164;8.012;2022-11-14T18:07:47;47.50;;;24.77;;
76373;SDS011;65197;50.164;8.012;2022-11-14T18:10:13;43.90;;;21.27;;
76373;SDS011;65197;50.164;8.012;2022-11-14T18:12:38;41.72;;;21.77;;
76373;SDS011;65197;50.164;8.012;2022-11-14T18:15:04;45.55;;;21.40;;
76373;SDS011;65197;50.164;8.012;2022-11-14T18:17:30;50.30;;;22.73;;
76373;SDS011;65197;50.164;8.012;2022-11-14T18:19:56;48.58;;;22.23;;
76373;SDS011;65197;50.164;8.012;2022-11-14T18:22:24;51.70;;;23.10;;
76373;SDS011;65197;50.164;8.012;2022-11-14T18:24:50;47.47;;;22.08;;
76373;SDS011;65197;50.164;8.012;2022-11-14T18:27:16;47.03;;;20.80;;
76373;SDS011;65197;50.164;8.012;2022-11-14T18:29:42;41.72;;;20.77;;
76373;SDS011;65197;50.164;8.012;2022-11-14T18:32:07;46.45;;;21.58;;
76373;SDS011;65197;50.164;8.012;2022-11-14T18:34:33;39.80;;;21.00;;
76373;SDS011;65197;50.164;8.012;2022-11-14T18:37:01;42.50;;;22.17;;
76373;SDS011;65197;50.164;8.012;2022-11-14T18:39:26;41.97;;;20.30;;
76373;SDS011;65197;50.164;8.012;2022-11-14T18:41:54;41.92;;;21.35;;
76373;SDS011;65197;50.164;8.012;2022-11-14T18:44:19;38.65;;;19.40;;
76373;SDS011;65197;50.164;8.012;2022-11-14T18:46:47;42.17;;;22.05;;
76373;SDS011;65197;50.164;8.012;2022-11-14T18:49:12;38.05;;;21.52;;
76373;SDS011;65197;50.164;8.012;2022-11-14T18:51:37;44.70;;;21.10;;
76373;SDS011;65197;50.164;8.012;2022-11-14T18:54:08;36.97;;;20.30;;
76373;SDS011;65197;50.164;8.012;2022-11-14T18:56:37;41.33;;;22.73;;
76373;SDS011;65197;50.164;8.012;2022-11-14T18:59:03;39.97;;;21.73;;
76373;SDS011;65197;50.164;8.012;2022-11-14T19:01:29;37.97;;;20.48;;
76373;SDS011;65197;50.164;8.012;2022-11-14T19:03:56;40.53;;;20.88;;
76373;SDS011;65197;50.164;8.012;2022-11-14T19:06:23;41.38;;;21.08;;
76373;SDS011;65197;50.164;8.012;2022-11-14T19:08:48;35.67;;;20.08;;
76373;SDS011;65197;50.164;8.012;2022-11-14T19:11:15;37.72;;;21.27;;
76373;SDS011;65197;50.164;8.012;2022-11-14T19:14:00;37.63;;;21.15;;
76373;SDS011;65197;50.164;8.012;2022-11-14T19:16:27;35.75;;;20.65;;
76373;SDS011;65197;50.164;8.012;2022-11-14T19:18:53;37.20;;;20.25;;
76373;SDS011;65197;50.164;8.012;2022-11-14T19:21:19;37.50;;;21.15;;
76373;SDS011;65197;50.164;8.012;2022-11-14T19:23:45;36.60;;;20.40;;
76373;SDS011;65197;50.164;8.012;2022-11-14T19:26:10;34.03;;;19.67;;
76373;SDS011;65197;50.164;8.012;2022-11-14T19:28:35;32.55;;;17.80;;
76373;SDS011;65197;50.164;8.012;2022-11-14T19:31:01;32.33;;;18.92;;
76373;SDS011;65197;50.164;8.012;2022-11-14T19:33:31;33.95;;;17.95;;
76373;SDS011;65197;50.164;8.012;2022-11-14T19:35:57;36.58;;;18.83;;
76373;SDS011;65197;50.164;8.012;2022-11-14T19:38:22;36.03;;;18.73;;
76373;SDS011;65197;50.164;8.012;2022-11-14T19:40:48;34.63;;;19.10;;
76373;SDS011;65197;50.164;8.012;2022-11-14T19:43:18;32.70;;;17.85;;
76373;SDS011;65197;50.164;8.012;2022-11-14T19:45:44;35.30;;;19.23;;
76373;SDS011;65197;50.164;8.012;2022-11-14T19:48:10;29.85;;;18.92;;
76373;SDS011;65197;50.164;8.012;2022-11-14T19:50:35;37.72;;;20.02;;
76373;SDS011;65197;50.164;8.012;2022-11-14T19:53:01;33.85;;;17.33;;
76373;SDS011;65197;50.164;8.012;2022-11-14T19:55:26;29.70;;;17.83;;
76373;SDS011;65197;50.164;8.012;2022-11-14T19:57:52;30.45;;;17.17;;
76373;SDS011;65197;50.164;8.012;2022-11-14T20:00:17;27.45;;;17.15;;
76373;SDS011;65197;50.164;8.012;2022-11-14T20:02:45;29.83;;;17.45;;
76373;SDS011;65197;50.164;8.012;2022-11-14T20:05:11;27.83;;;16.58;;
76373;SDS011;65197;50.164;8.012;2022-11-14T20:07:36;32.40;;;17.55;;
76373;SDS011;65197;50.164;8.012;2022-11-14T20:10:02;28.30;;;16.98;;
76373;SDS011;65197;50.164;8.012;2022-11-14T20:12:28;30.55;;;17.85;;
76373;SDS011;65197;50.164;8.012;2022-11-14T20:14:54;56.97;;;28.55;;
76373;SDS011;65197;50.164;8.012;2022-11-14T20:17:19;51.13;;;28.00;;
76373;SDS011;65197;50.164;8.012;2022-11-14T20:19:45;26.55;;;15.60;;
76373;SDS011;65197;50.164;8.012;2022-11-14T20:22:10;33.38;;;23.92;;
76373;SDS011;65197;50.164;8.012;2022-11-14T20:24:35;30.92;;;18.13;;
76373;SDS011;65197;50.164;8.012;2022-11-14T20:27:01;23.23;;;13.63;;
76373;SDS011;65197;50.164;8.012;2022-11-14T20:29:26;21.15;;;14.82;;
76373;SDS011;65197;50.164;8.012;2022-11-14T20:31:52;24.55;;;14.50;;
76373;SDS011;65197;50.164;8.012;2022-11-14T20:34:17;24.25;;;13.40;;
76373;SDS011;65197;50.164;8.012;2022-11-14T20:36:42;22.17;;;14.38;;
76373;SDS011;65197;50.164;8.012;2022-11-14T20:39:08;26.55;;;14.25;;
76373;SDS011;65197;50.164;8.012;2022-11-14T20:41:34;23.00;;;12.85;;
76373;SDS011;65197;50.164;8.012;2022-11-14T20:44:00;26.75;;;16.33;;
76373;SDS011;65197;50.164;8.012;2022-11-14T20:46:27;24.52;;;15.98;;
76373;SDS011;65197;50.164;8.012;2022-11-14T20:48:52;27.70;;;15.27;;
76373;SDS011;65197;50.164;8.012;2022-11-14T20:53:44;26.80;;;14.15;;
76373;SDS011;65197;50.164;8.012;2022-11-14T20:56:10;30.27;;;17.88;;
76373;SDS011;65197;50.164;8.012;2022-11-14T20:58:38;34.80;;;17.70;;
76373;SDS011;65197;50.164;8.012;2022-11-14T21:01:04;45.15;;;24.48;;
76373;SDS011;65197;50.164;8.012;2022-11-14T21:03:29;57.50;;;32.30;;
76373;SDS011;65197;50.164;8.012;2022-11-14T21:05:55;26.27;;;16.00;;
76373;SDS011;65197;50.164;8.012;2022-11-14T21:08:21;22.40;;;12.82;;
76373;SDS011;65197;50.164;8.012;2022-11-14T21:10:47;24.50;;;13.15;;
76373;SDS011;65197;50.164;8.012;2022-11-14T21:13:18;21.60;;;14.15;;
76373;SDS011;65197;50.164;8.012;2022-11-14T21:16:05;25.33;;;13.95;;
76373;SDS011;65197;50.164;8.012;2022-11-14T21:18:32;26.52;;;16.65;;
76373;SDS011;65197;50.164;8.012;2022-11-14T21:21:02;22.58;;;12.95;;
76373;SDS011;65197;50.164;8.012;2022-11-14T21:23:35;24.50;;;15.10;;
76373;SDS011;65197;50.164;8.012;2022-11-14T21:28:28;18.60;;;11.32;;
76373;SDS011;65197;50.164;8.012;2022-11-14T21:30:54;25.58;;;15.40;;
76373;SDS011;65197;50.164;8.012;2022-11-14T21:33:23;23.85;;;13.00;;
76373;SDS011;65197;50.164;8.012;2022-11-14T21:35:52;17.92;;;10.77;;
76373;SDS011;65197;50.164;8.012;2022-11-14T21:38:18;22.27;;;14.23;;
76373;SDS011;65197;50.164;8.012;2022-11-14T21:40:49;19.60;;;12.00;;
76373;SDS011;65197;50.164;8.012;2022-11-14T21:43:15;22.35;;;15.25;;
76373;SDS011;65197;50.164;8.012;2022-11-14T21:45:40;18.48;;;12.85;;
76373;SDS011;65197;50.164;8.012;2022-11-14T21:48:06;19.30;;;11.60;;
76373;SDS011;65197;50.164;8.012;2022-11-14T21:50:31;17.27;;;11.35;;
76373;SDS011;65197;50.164;8.012;2022-11-14T21:52:56;19.65;;;11.95;;
76373;SDS011;65197;50.164;8.012;2022-11-14T21:55:22;17.90;;;11.93;;
76373;SDS011;65197;50.164;8.012;2022-11-14T21:57:47;20.27;;;12.82;;
76373;SDS011;65197;50.164;8.012;2022-11-14T22:00:13;16.35;;;10.50;;
76373;SDS011;65197;50.164;8.012;2022-11-14T22:02:39;12.50;;;9.43;;
76373;SDS011;65197;50.164;8.012;2022-11-14T22:05:23;20.85;;;9.18;;
76373;SDS011;65197;50.164;8.012;2022-11-14T22:07:48;16.27;;;8.90;;
76373;SDS011;65197;50.164;8.012;2022-11-14T22:10:14;16.90;;;9.02;;
76373;SDS011;65197;50.164;8.012;2022-11-14T22:12:40;15.63;;;8.68;;
76373;SDS011;65197;50.164;8.012;2022-11-14T22:15:05;12.80;;;8.85;;
76373;SDS011;65197;50.164;8.012;2022-11-14T22:17:31;15.35;;;9.27;;
76373;SDS011;65197;50.164;8.012;2022-11-14T22:19:56;14.25;;;8.23;;
76373;SDS011;65197;50.164;8.012;2022-11-14T22:22:22;14.98;;;8.40;;
76373;SDS011;65197;50.164;8.012;2022-11-14T22:24:47;15.23;;;9.38;;
76373;SDS011;65197;50.164;8.012;2022-11-14T22:27:12;15.60;;;9.55;;
76373;SDS011;65197;50.164;8.012;2022-11-14T22:29:38;15.25;;;9.68;;
76373;SDS011;65197;50.164;8.012;2022-11-14T22:32:03;16.58;;;8.70;;
76373;SDS011;65197;50.164;8.012;2022-11-14T22:34:28;15.80;;;9.20;;
76373;SDS011;65197;50.164;8.012;2022-11-14T22:36:54;14.13;;;8.68;;
76373;SDS011;65197;50.164;8.012;2022-11-14T22:39:19;18.10;;;9.38;;
76373;SDS011;65197;50.164;8.012;2022-11-14T22:41:45;16.23;;;10.30;;
76373;SDS011;65197;50.164;8.012;2022-11-14T22:44:10;15.52;;;9.73;;
76373;SDS011;65197;50.164;8.012;2022-11-14T22:46:36;18.13;;;9.60;;
76373;SDS011;65197;50.164;8.012;2022-11-14T22:49:01;16.83;;;9.88;;
76373;SDS011;65197;50.164;8.012;2022-11-14T22:51:27;15.68;;;9.23;;
76373;SDS011;65197;50.164;8.012;2022-11-14T22:53:54;16.17;;;9.98;;
76373;SDS011;65197;50.164;8.012;2022-11-14T22:56:21;17.48;;;9.98;;
76373;SDS011;65197;50.164;8.012;2022-11-14T22:58:47;14.07;;;9.77;;
76373;SDS011;65197;50.164;8.012;2022-11-14T23:01:14;16.30;;;9.77;;
76373;SDS011;65197;50.164;8.012;2022-11-14T23:03:42;17.05;;;10.05;;
76373;SDS011;65197;50.164;8.012;2022-11-14T23:06:08;16.23;;;8.95;;
76373;SDS011;65197;50.164;8.012;2022-11-14T23:08:35;16.95;;;9.80;;
76373;SDS011;65197;50.164;8.012;2022-11-14T23:11:03;17.95;;;10.77;;
76373;SDS011;65197;50.164;8.012;2022-11-14T23:13:40;15.55;;;10.38;;
76373;SDS011;65197;50.164;8.012;2022-11-14T23:16:07;15.48;;;9.75;;
76373;SDS011;65197;50.164;8.012;2022-11-14T23:18:33;18.42;;;9.20;;
76373;SDS011;65197;50.164;8.012;2022-11-14T23:21:09;16.17;;;9.80;;
76373;SDS011;65197;50.164;8.012;2022-11-14T23:23:36;17.60;;;11.13;;
76373;SDS011;65197;50.164;8.012;2022-11-14T23:26:05;17.75;;;9.73;;
76373;SDS011;65197;50.164;8.012;2022-11-14T23:28:35;14.65;;;10.02;;
76373;SDS011;65197;50.164;8.012;2022-11-14T23:31:00;14.70;;;9.60;;
76373;SDS011;65197;50.164;8.012;2022-11-14T23:33:26;16.92;;;9.45;;
76373;SDS011;65197;50.164;8.012;2022-11-14T23:35:51;15.35;;;9.30;;
76373;SDS011;65197;50.164;8.012;2022-11-14T23:38:17;14.35;;;9.00;;
76373;SDS011;65197;50.164;8.012;2022-11-14T23:40:42;13.98;;;8.88;;
76373;SDS011;65197;50.164;8.012;2022-11-14T23:43:08;16.30;;;9.27;;
76373;SDS011;65197;50.164;8.012;2022-11-14T23:45:33;14.77;;;9.15;;
76373;SDS011;65197;50.164;8.012;2022-11-14T23:47:59;13.82;;;8.50;;
76373;SDS011;65197;50.164;8.012;2022-11-14T23:50:24;21.55;;;9.80;;
76373;SDS011;65197;50.164;8.012;2022-11-14T23:52:50;16.92;;;9.07;;
76373;SDS011;65197;50.164;8.012;2022-11-14T23:55:15;17.35;;;9.45;;
76373;SDS011;65197;50.164;8.012;2022-11-14T23:57:40;18.05;;;10.30;;
